sensor_id;sensor_type;location;lat;lon;timestamp;temperature;humidity
25991;DHT22;13779;-33.886;151.198;2024-03-08T00:00:17;24.60;99.90
25991;DHT22;13779;-33.886;151.198;2024-03-08T00:02:48;24.70;99.90
25991;DHT22;13779;-33.886;151.198;2024-03-08T00:05:19;24.70;99.90
25991;DHT22;13779;-33.886;151.198;2024-03-08T00:07:49;24.70;99.90
25991;DHT22;13779;-33.886;151.198;2024-03-08T00:10:19;24.70;99.90
25991;DHT22;13779;-33.886;151.198;2024-03-08T00:12:52;24.70;99.90
25991;DHT22;13779;-33.886;151.198;2024-03-08T00:15:22;24.70;99.90
25991;DHT22;13779;-33.886;151.198;2024-03-08T00:17:52;24.80;99.90
25991;DHT22;13779;-33.886;151.198;2024-03-08T00:20:22;24.80;99.90
25991;DHT22;13779;-33.886;151.198;2024-03-08T00:22:52;24.80;99.90
25991;DHT22;13779;-33.886;151.198;2024-03-08T00:25:22;24.80;99.90
25991;DHT22;13779;-33.886;151.198;2024-03-08T00:27:52;24.90;99.90
25991;DHT22;13779;-33.886;151.198;2024-03-08T00:30:25;24.80;99.90
25991;DHT22;13779;-33.886;151.198;2024-03-08T00:32:54;24.90;99.90
25991;DHT22;13779;-33.886;151.198;2024-03-08T00:35:24;24.90;99.90
25991;DHT22;13779;-33.886;151.198;2024-03-08T00:37:55;25.10;99.90
25991;DHT22;13779;-33.886;151.198;2024-03-08T00:40:26;25.20;99.90
25991;DHT22;13779;-33.886;151.198;2024-03-08T00:42:56;25.30;99.90
25991;DHT22;13779;-33.886;151.198;2024-03-08T00:45:26;25.40;99.90
25991;DHT22;13779;-33.886;151.198;2024-03-08T00:47:55;25.50;99.90
25991;DHT22;13779;-33.886;151.198;2024-03-08T00:50:25;25.60;99.90
25991;DHT22;13779;-33.886;151.198;2024-03-08T00:52:55;25.50;99.90
25991;DHT22;13779;-33.886;151.198;2024-03-08T00:55:25;25.50;99.90
25991;DHT22;13779;-33.886;151.198;2024-03-08T00:57:55;25.50;99.90
25991;DHT22;13779;-33.886;151.198;2024-03-08T01:00:26;25.50;99.90
25991;DHT22;13779;-33.886;151.198;2024-03-08T01:02:57;25.40;99.90
25991;DHT22;13779;-33.886;151.198;2024-03-08T01:05:26;25.40;99.90
25991;DHT22;13779;-33.886;151.198;2024-03-08T01:07:56;25.40;99.90
25991;DHT22;13779;-33.886;151.198;2024-03-08T01:10:26;25.40;99.90
25991;DHT22;13779;-33.886;151.198;2024-03-08T01:12:56;25.50;99.90
25991;DHT22;13779;-33.886;151.198;2024-03-08T01:15:29;25.50;99.90
25991;DHT22;13779;-33.886;151.198;2024-03-08T01:17:59;25.60;99.90
25991;DHT22;13779;-33.886;151.198;2024-03-08T01:20:30;25.60;99.90
25991;DHT22;13779;-33.886;151.198;2024-03-08T01:23:00;25.70;99.90
25991;DHT22;13779;-33.886;151.198;2024-03-08T01:25:36;25.60;99.90
25991;DHT22;13779;-33.886;151.198;2024-03-08T01:28:06;25.60;99.90
25991;DHT22;13779;-33.886;151.198;2024-03-08T01:30:36;25.80;99.90
25991;DHT22;13779;-33.886;151.198;2024-03-08T01:33:06;25.80;99.90
25991;DHT22;13779;-33.886;151.198;2024-03-08T01:35:38;25.90;99.90
25991;DHT22;13779;-33.886;151.198;2024-03-08T01:38:10;25.90;99.90
25991;DHT22;13779;-33.886;151.198;2024-03-08T01:40:40;25.90;99.90
25991;DHT22;13779;-33.886;151.198;2024-03-08T01:45:49;26.10;99.90
25991;DHT22;13779;-33.886;151.198;2024-03-08T01:48:19;26.20;99.90
25991;DHT22;13779;-33.886;151.198;2024-03-08T01:50:53;26.30;99.90
25991;DHT22;13779;-33.886;151.198;2024-03-08T01:53:24;26.40;99.90
25991;DHT22;13779;-33.886;151.198;2024-03-08T01:55:56;26.40;99.90
25991;DHT22;13779;-33.886;151.198;2024-03-08T01:58:27;26.50;99.90
25991;DHT22;13779;-33.886;151.198;2024-03-08T02:00:57;26.50;99.90
25991;DHT22;13779;-33.886;151.198;2024-03-08T02:03:29;26.60;99.90
25991;DHT22;13779;-33.886;151.198;2024-03-08T02:06:00;26.60;99.90
25991;DHT22;13779;-33.886;151.198;2024-03-08T02:08:30;26.70;99.90
25991;DHT22;13779;-33.886;151.198;2024-03-08T02:11:00;26.80;99.90
25991;DHT22;13779;-33.886;151.198;2024-03-08T02:13:34;26.90;99.90
25991;DHT22;13779;-33.886;151.198;2024-03-08T02:16:04;26.90;99.90
25991;DHT22;13779;-33.886;151.198;2024-03-08T02:18:37;26.90;99.90
25991;DHT22;13779;-33.886;151.198;2024-03-08T02:21:08;26.90;99.90
25991;DHT22;13779;-33.886;151.198;2024-03-08T02:23:40;26.90;99.90
25991;DHT22;13779;-33.886;151.198;2024-03-08T02:26:10;26.90;99.90
25991;DHT22;13779;-33.886;151.198;2024-03-08T02:28:40;26.80;99.90
25991;DHT22;13779;-33.886;151.198;2024-03-08T02:31:12;26.80;99.90
25991;DHT22;13779;-33.886;151.198;2024-03-08T02:33:43;26.90;99.90
25991;DHT22;13779;-33.886;151.198;2024-03-08T02:36:13;26.90;99.90
25991;DHT22;13779;-33.886;151.198;2024-03-08T02:38:43;26.80;99.90
25991;DHT22;13779;-33.886;151.198;2024-03-08T02:41:13;26.90;99.90
25991;DHT22;13779;-33.886;151.198;2024-03-08T02:43:43;26.90;99.90
25991;DHT22;13779;-33.886;151.198;2024-03-08T02:46:14;27.00;99.90
25991;DHT22;13779;-33.886;151.198;2024-03-08T02:48:45;27.00;99.90
25991;DHT22;13779;-33.886;151.198;2024-03-08T02:51:16;27.00;99.90
25991;DHT22;13779;-33.886;151.198;2024-03-08T02:53:46;27.00;99.90
25991;DHT22;13779;-33.886;151.198;2024-03-08T02:56:17;26.90;99.90
25991;DHT22;13779;-33.886;151.198;2024-03-08T02:58:48;26.80;99.90
25991;DHT22;13779;-33.886;151.198;2024-03-08T03:01:21;26.80;99.90
25991;DHT22;13779;-33.886;151.198;2024-03-08T03:03:51;26.80;99.90
25991;DHT22;13779;-33.886;151.198;2024-03-08T03:06:22;26.90;99.90
25991;DHT22;13779;-33.886;151.198;2024-03-08T03:08:52;26.90;99.90
25991;DHT22;13779;-33.886;151.198;2024-03-08T03:11:22;27.00;99.90
25991;DHT22;13779;-33.886;151.198;2024-03-08T03:13:52;27.10;99.90
25991;DHT22;13779;-33.886;151.198;2024-03-08T03:16:22;27.10;99.90
25991;DHT22;13779;-33.886;151.198;2024-03-08T03:18:53;27.10;99.90
25991;DHT22;13779;-33.886;151.198;2024-03-08T03:21:23;27.10;99.90
25991;DHT22;13779;-33.886;151.198;2024-03-08T03:23:52;27.20;99.90
25991;DHT22;13779;-33.886;151.198;2024-03-08T03:26:22;27.30;99.90
25991;DHT22;13779;-33.886;151.198;2024-03-08T03:28:55;27.20;99.90
25991;DHT22;13779;-33.886;151.198;2024-03-08T03:31:26;27.10;99.90
25991;DHT22;13779;-33.886;151.198;2024-03-08T03:33:56;27.00;99.90
25991;DHT22;13779;-33.886;151.198;2024-03-08T03:36:30;26.90;99.90
25991;DHT22;13779;-33.886;151.198;2024-03-08T03:39:00;26.90;99.90
25991;DHT22;13779;-33.886;151.198;2024-03-08T03:41:43;26.90;99.90
25991;DHT22;13779;-33.886;151.198;2024-03-08T03:44:15;27.00;99.90
25991;DHT22;13779;-33.886;151.198;2024-03-08T03:46:45;27.00;99.90
25991;DHT22;13779;-33.886;151.198;2024-03-08T03:49:16;27.00;99.90
25991;DHT22;13779;-33.886;151.198;2024-03-08T03:51:49;27.00;99.90
25991;DHT22;13779;-33.886;151.198;2024-03-08T03:54:19;26.90;99.90
25991;DHT22;13779;-33.886;151.198;2024-03-08T03:56:48;27.00;99.90
25991;DHT22;13779;-33.886;151.198;2024-03-08T03:59:21;27.00;99.90
25991;DHT22;13779;-33.886;151.198;2024-03-08T04:01:53;27.00;99.90
25991;DHT22;13779;-33.886;151.198;2024-03-08T04:04:23;26.90;99.90
25991;DHT22;13779;-33.886;151.198;2024-03-08T04:06:53;26.80;99.90
25991;DHT22;13779;-33.886;151.198;2024-03-08T04:09:23;26.80;99.90
25991;DHT22;13779;-33.886;151.198;2024-03-08T04:11:53;26.80;99.90
25991;DHT22;13779;-33.886;151.198;2024-03-08T04:14:24;26.80;99.90
25991;DHT22;13779;-33.886;151.198;2024-03-08T04:16:55;26.90;99.90
25991;DHT22;13779;-33.886;151.198;2024-03-08T04:19:25;27.10;99.90
25991;DHT22;13779;-33.886;151.198;2024-03-08T04:21:56;27.10;99.90
25991;DHT22;13779;-33.886;151.198;2024-03-08T04:24:26;27.20;99.90
25991;DHT22;13779;-33.886;151.198;2024-03-08T04:26:55;27.20;99.90
25991;DHT22;13779;-33.886;151.198;2024-03-08T04:29:26;27.40;99.90
25991;DHT22;13779;-33.886;151.198;2024-03-08T04:31:59;27.60;99.90
25991;DHT22;13779;-33.886;151.198;2024-03-08T04:34:29;27.70;99.90
25991;DHT22;13779;-33.886;151.198;2024-03-08T04:36:58;28.00;99.90
25991;DHT22;13779;-33.886;151.198;2024-03-08T04:39:28;28.00;99.90
25991;DHT22;13779;-33.886;151.198;2024-03-08T04:41:59;28.00;99.90
25991;DHT22;13779;-33.886;151.198;2024-03-08T04:44:32;27.90;99.90
25991;DHT22;13779;-33.886;151.198;2024-03-08T04:47:02;27.80;99.90
25991;DHT22;13779;-33.886;151.198;2024-03-08T04:49:35;27.70;99.90
25991;DHT22;13779;-33.886;151.198;2024-03-08T04:52:05;27.60;99.90
25991;DHT22;13779;-33.886;151.198;2024-03-08T04:54:35;27.60;99.90
25991;DHT22;13779;-33.886;151.198;2024-03-08T04:57:05;27.60;99.90
25991;DHT22;13779;-33.886;151.198;2024-03-08T04:59:36;27.40;99.90
25991;DHT22;13779;-33.886;151.198;2024-03-08T05:02:06;27.20;99.90
25991;DHT22;13779;-33.886;151.198;2024-03-08T05:04:36;27.10;99.90
25991;DHT22;13779;-33.886;151.198;2024-03-08T05:07:06;27.00;99.90
25991;DHT22;13779;-33.886;151.198;2024-03-08T05:09:36;27.00;99.90
25991;DHT22;13779;-33.886;151.198;2024-03-08T05:12:06;27.00;99.90
25991;DHT22;13779;-33.886;151.198;2024-03-08T05:14:36;27.10;99.90
25991;DHT22;13779;-33.886;151.198;2024-03-08T05:17:06;27.10;99.90
25991;DHT22;13779;-33.886;151.198;2024-03-08T05:19:35;27.00;99.90
25991;DHT22;13779;-33.886;151.198;2024-03-08T05:22:05;26.90;99.90
25991;DHT22;13779;-33.886;151.198;2024-03-08T05:24:34;26.90;99.90
25991;DHT22;13779;-33.886;151.198;2024-03-08T05:27:04;26.80;99.90
25991;DHT22;13779;-33.886;151.198;2024-03-08T05:29:35;26.70;99.90
25991;DHT22;13779;-33.886;151.198;2024-03-08T05:32:04;26.60;99.90
25991;DHT22;13779;-33.886;151.198;2024-03-08T05:34:35;26.60;99.90
25991;DHT22;13779;-33.886;151.198;2024-03-08T05:37:06;26.60;99.90
25991;DHT22;13779;-33.886;151.198;2024-03-08T05:39:35;26.60;99.90
25991;DHT22;13779;-33.886;151.198;2024-03-08T05:42:09;26.50;99.90
25991;DHT22;13779;-33.886;151.198;2024-03-08T05:44:39;26.50;99.90
25991;DHT22;13779;-33.886;151.198;2024-03-08T05:47:09;26.40;99.90
25991;DHT22;13779;-33.886;151.198;2024-03-08T05:49:39;26.50;99.90
25991;DHT22;13779;-33.886;151.198;2024-03-08T05:52:09;26.50;99.90
25991;DHT22;13779;-33.886;151.198;2024-03-08T05:54:39;26.50;99.90
25991;DHT22;13779;-33.886;151.198;2024-03-08T05:57:09;26.60;99.90
25991;DHT22;13779;-33.886;151.198;2024-03-08T05:59:39;26.60;99.90
25991;DHT22;13779;-33.886;151.198;2024-03-08T06:02:13;26.60;99.90
25991;DHT22;13779;-33.886;151.198;2024-03-08T06:04:47;26.60;99.90
25991;DHT22;13779;-33.886;151.198;2024-03-08T06:07:17;26.60;99.90
25991;DHT22;13779;-33.886;151.198;2024-03-08T06:09:48;26.60;99.90
25991;DHT22;13779;-33.886;151.198;2024-03-08T06:12:18;26.60;99.90
25991;DHT22;13779;-33.886;151.198;2024-03-08T06:14:48;26.50;99.90
25991;DHT22;13779;-33.886;151.198;2024-03-08T06:17:17;26.50;99.90
25991;DHT22;13779;-33.886;151.198;2024-03-08T06:19:47;26.50;99.90
25991;DHT22;13779;-33.886;151.198;2024-03-08T06:22:16;26.40;99.90
25991;DHT22;13779;-33.886;151.198;2024-03-08T06:24:47;26.40;99.90
25991;DHT22;13779;-33.886;151.198;2024-03-08T06:27:16;26.40;99.90
25991;DHT22;13779;-33.886;151.198;2024-03-08T06:29:46;26.30;99.90
25991;DHT22;13779;-33.886;151.198;2024-03-08T06:32:18;26.30;99.90
25991;DHT22;13779;-33.886;151.198;2024-03-08T06:34:47;26.30;99.90
25991;DHT22;13779;-33.886;151.198;2024-03-08T06:37:18;26.20;99.90
25991;DHT22;13779;-33.886;151.198;2024-03-08T06:39:50;26.20;99.90
25991;DHT22;13779;-33.886;151.198;2024-03-08T06:42:20;26.20;99.90
25991;DHT22;13779;-33.886;151.198;2024-03-08T06:44:49;26.10;99.90
25991;DHT22;13779;-33.886;151.198;2024-03-08T06:47:19;26.10;99.90
25991;DHT22;13779;-33.886;151.198;2024-03-08T06:49:50;26.00;99.90
25991;DHT22;13779;-33.886;151.198;2024-03-08T06:52:20;26.00;99.90
25991;DHT22;13779;-33.886;151.198;2024-03-08T06:54:50;26.00;99.90
25991;DHT22;13779;-33.886;151.198;2024-03-08T06:57:21;26.00;99.90
25991;DHT22;13779;-33.886;151.198;2024-03-08T06:59:53;26.00;99.90
25991;DHT22;13779;-33.886;151.198;2024-03-08T07:02:23;26.00;99.90
25991;DHT22;13779;-33.886;151.198;2024-03-08T07:04:56;26.00;99.90
25991;DHT22;13779;-33.886;151.198;2024-03-08T07:07:25;26.00;99.90
25991;DHT22;13779;-33.886;151.198;2024-03-08T07:09:55;26.00;99.90
25991;DHT22;13779;-33.886;151.198;2024-03-08T07:12:25;25.90;99.90
25991;DHT22;13779;-33.886;151.198;2024-03-08T07:14:55;25.90;99.90
25991;DHT22;13779;-33.886;151.198;2024-03-08T07:17:24;25.90;99.90
25991;DHT22;13779;-33.886;151.198;2024-03-08T07:19:54;25.90;99.90
25991;DHT22;13779;-33.886;151.198;2024-03-08T07:22:25;25.90;99.90
25991;DHT22;13779;-33.886;151.198;2024-03-08T07:24:55;25.90;99.90
25991;DHT22;13779;-33.886;151.198;2024-03-08T07:27:36;25.90;99.90
25991;DHT22;13779;-33.886;151.198;2024-03-08T07:30:06;25.90;99.90
25991;DHT22;13779;-33.886;151.198;2024-03-08T07:32:38;25.80;99.90
25991;DHT22;13779;-33.886;151.198;2024-03-08T07:35:08;25.80;99.90
25991;DHT22;13779;-33.886;151.198;2024-03-08T07:37:38;25.80;99.90
25991;DHT22;13779;-33.886;151.198;2024-03-08T07:40:08;25.80;99.90
25991;DHT22;13779;-33.886;151.198;2024-03-08T07:42:38;25.80;99.90
25991;DHT22;13779;-33.886;151.198;2024-03-08T07:45:07;25.80;99.90
25991;DHT22;13779;-33.886;151.198;2024-03-08T07:47:39;25.70;99.90
25991;DHT22;13779;-33.886;151.198;2024-03-08T07:50:12;25.80;99.90
25991;DHT22;13779;-33.886;151.198;2024-03-08T07:52:45;25.80;99.90
25991;DHT22;13779;-33.886;151.198;2024-03-08T07:55:14;25.80;99.90
25991;DHT22;13779;-33.886;151.198;2024-03-08T07:57:44;25.80;99.90
25991;DHT22;13779;-33.886;151.198;2024-03-08T08:00:14;25.70;99.90
25991;DHT22;13779;-33.886;151.198;2024-03-08T08:02:46;25.70;99.90
25991;DHT22;13779;-33.886;151.198;2024-03-08T08:05:18;25.70;99.90
25991;DHT22;13779;-33.886;151.198;2024-03-08T08:07:47;25.60;99.90
25991;DHT22;13779;-33.886;151.198;2024-03-08T08:10:18;25.50;99.90
25991;DHT22;13779;-33.886;151.198;2024-03-08T08:12:51;25.50;99.90
25991;DHT22;13779;-33.886;151.198;2024-03-08T08:15:21;25.50;99.90
25991;DHT22;13779;-33.886;151.198;2024-03-08T08:17:51;25.40;99.90
25991;DHT22;13779;-33.886;151.198;2024-03-08T08:20:21;25.40;99.90
25991;DHT22;13779;-33.886;151.198;2024-03-08T08:22:51;25.40;99.90
25991;DHT22;13779;-33.886;151.198;2024-03-08T08:25:23;25.40;99.90
25991;DHT22;13779;-33.886;151.198;2024-03-08T08:27:53;25.40;99.90
25991;DHT22;13779;-33.886;151.198;2024-03-08T08:30:23;25.40;99.90
25991;DHT22;13779;-33.886;151.198;2024-03-08T08:32:52;25.40;99.90
25991;DHT22;13779;-33.886;151.198;2024-03-08T08:35:22;25.40;99.90
25991;DHT22;13779;-33.886;151.198;2024-03-08T08:37:53;25.40;99.90
25991;DHT22;13779;-33.886;151.198;2024-03-08T08:40:22;25.40;99.90
25991;DHT22;13779;-33.886;151.198;2024-03-08T08:42:53;25.40;99.90
25991;DHT22;13779;-33.886;151.198;2024-03-08T08:45:26;25.40;99.90
25991;DHT22;13779;-33.886;151.198;2024-03-08T08:47:56;25.30;99.90
25991;DHT22;13779;-33.886;151.198;2024-03-08T08:50:29;25.30;99.90
25991;DHT22;13779;-33.886;151.198;2024-03-08T08:52:59;25.30;99.90
25991;DHT22;13779;-33.886;151.198;2024-03-08T08:55:34;25.30;99.90
25991;DHT22;13779;-33.886;151.198;2024-03-08T08:58:04;25.30;99.90
25991;DHT22;13779;-33.886;151.198;2024-03-08T09:00:36;25.30;99.90
25991;DHT22;13779;-33.886;151.198;2024-03-08T09:03:07;25.20;99.90
25991;DHT22;13779;-33.886;151.198;2024-03-08T09:05:36;25.20;99.90
25991;DHT22;13779;-33.886;151.198;2024-03-08T09:08:07;25.30;99.90
25991;DHT22;13779;-33.886;151.198;2024-03-08T09:10:37;25.20;99.90
25991;DHT22;13779;-33.886;151.198;2024-03-08T09:13:08;25.20;99.90
25991;DHT22;13779;-33.886;151.198;2024-03-08T09:15:44;25.20;99.90
25991;DHT22;13779;-33.886;151.198;2024-03-08T09:18:15;25.20;99.90
25991;DHT22;13779;-33.886;151.198;2024-03-08T09:20:45;25.20;99.90
25991;DHT22;13779;-33.886;151.198;2024-03-08T09:23:15;25.20;99.90
25991;DHT22;13779;-33.886;151.198;2024-03-08T09:25:45;25.20;99.90
25991;DHT22;13779;-33.886;151.198;2024-03-08T09:28:15;25.20;99.90
25991;DHT22;13779;-33.886;151.198;2024-03-08T09:30:45;25.20;99.90
25991;DHT22;13779;-33.886;151.198;2024-03-08T09:33:20;25.20;99.90
25991;DHT22;13779;-33.886;151.198;2024-03-08T09:35:51;25.20;99.90
25991;DHT22;13779;-33.886;151.198;2024-03-08T09:38:23;25.20;99.90
25991;DHT22;13779;-33.886;151.198;2024-03-08T09:40:54;25.10;99.90
25991;DHT22;13779;-33.886;151.198;2024-03-08T09:43:25;25.10;99.90
25991;DHT22;13779;-33.886;151.198;2024-03-08T09:45:57;25.10;99.90
25991;DHT22;13779;-33.886;151.198;2024-03-08T09:48:28;25.10;99.90
25991;DHT22;13779;-33.886;151.198;2024-03-08T09:50:59;25.10;99.90
25991;DHT22;13779;-33.886;151.198;2024-03-08T09:53:29;25.10;99.90
25991;DHT22;13779;-33.886;151.198;2024-03-08T09:56:00;25.10;99.90
25991;DHT22;13779;-33.886;151.198;2024-03-08T09:58:33;25.10;99.90
25991;DHT22;13779;-33.886;151.198;2024-03-08T10:01:04;25.10;99.90
25991;DHT22;13779;-33.886;151.198;2024-03-08T10:03:34;25.10;99.90
25991;DHT22;13779;-33.886;151.198;2024-03-08T10:06:05;25.10;99.90
25991;DHT22;13779;-33.886;151.198;2024-03-08T10:08:36;25.10;99.90
25991;DHT22;13779;-33.886;151.198;2024-03-08T10:11:07;25.10;99.90
25991;DHT22;13779;-33.886;151.198;2024-03-08T10:13:40;25.10;99.90
25991;DHT22;13779;-33.886;151.198;2024-03-08T10:16:11;25.10;99.90
25991;DHT22;13779;-33.886;151.198;2024-03-08T10:18:41;25.10;99.90
25991;DHT22;13779;-33.886;151.198;2024-03-08T10:21:12;25.00;99.90
25991;DHT22;13779;-33.886;151.198;2024-03-08T10:23:44;25.10;99.90
25991;DHT22;13779;-33.886;151.198;2024-03-08T10:26:15;25.00;99.90
25991;DHT22;13779;-33.886;151.198;2024-03-08T10:28:47;25.00;99.90
25991;DHT22;13779;-33.886;151.198;2024-03-08T10:31:22;25.00;99.90
25991;DHT22;13779;-33.886;151.198;2024-03-08T10:33:53;25.00;99.90
25991;DHT22;13779;-33.886;151.198;2024-03-08T10:36:23;24.90;99.90
25991;DHT22;13779;-33.886;151.198;2024-03-08T10:38:54;25.00;99.90
25991;DHT22;13779;-33.886;151.198;2024-03-08T10:41:26;24.90;99.90
25991;DHT22;13779;-33.886;151.198;2024-03-08T10:50:18;24.90;99.90
25991;DHT22;13779;-33.886;151.198;2024-03-08T10:52:54;24.90;99.90
25991;DHT22;13779;-33.886;151.198;2024-03-08T10:55:26;24.90;99.90
25991;DHT22;13779;-33.886;151.198;2024-03-08T10:57:58;24.90;99.90
25991;DHT22;13779;-33.886;151.198;2024-03-08T11:00:30;24.90;99.90
25991;DHT22;13779;-33.886;151.198;2024-03-08T11:03:01;24.80;99.90
25991;DHT22;13779;-33.886;151.198;2024-03-08T11:08:17;24.80;99.90
25991;DHT22;13779;-33.886;151.198;2024-03-08T11:10:52;24.80;99.90
25991;DHT22;13779;-33.886;151.198;2024-03-08T11:13:35;24.80;99.90
25991;DHT22;13779;-33.886;151.198;2024-03-08T11:16:37;24.80;99.90
25991;DHT22;13779;-33.886;151.198;2024-03-08T11:21:43;24.80;99.90
25991;DHT22;13779;-33.886;151.198;2024-03-08T11:24:14;24.80;99.90
25991;DHT22;13779;-33.886;151.198;2024-03-08T11:26:45;24.80;99.90
25991;DHT22;13779;-33.886;151.198;2024-03-08T11:34:42;24.80;99.90
25991;DHT22;13779;-33.886;151.198;2024-03-08T11:37:19;24.80;99.90
25991;DHT22;13779;-33.886;151.198;2024-03-08T11:39:53;24.70;99.90
25991;DHT22;13779;-33.886;151.198;2024-03-08T11:42:28;24.80;99.90
25991;DHT22;13779;-33.886;151.198;2024-03-08T11:45:00;24.80;99.90
25991;DHT22;13779;-33.886;151.198;2024-03-08T11:47:34;24.70;99.90
25991;DHT22;13779;-33.886;151.198;2024-03-08T11:50:06;24.70;99.90
25991;DHT22;13779;-33.886;151.198;2024-03-08T11:52:40;24.70;99.90
25991;DHT22;13779;-33.886;151.198;2024-03-08T11:55:12;24.70;99.90
25991;DHT22;13779;-33.886;151.198;2024-03-08T11:57:43;24.70;99.90
25991;DHT22;13779;-33.886;151.198;2024-03-08T12:00:18;24.70;99.90
25991;DHT22;13779;-33.886;151.198;2024-03-08T12:03:04;24.70;99.90
25991;DHT22;13779;-33.886;151.198;2024-03-08T12:05:35;24.70;99.90
25991;DHT22;13779;-33.886;151.198;2024-03-08T12:08:06;24.60;99.90
25991;DHT22;13779;-33.886;151.198;2024-03-08T12:10:38;24.70;99.90
25991;DHT22;13779;-33.886;151.198;2024-03-08T12:13:09;24.70;99.90
25991;DHT22;13779;-33.886;151.198;2024-03-08T12:15:42;24.70;99.90
25991;DHT22;13779;-33.886;151.198;2024-03-08T12:18:13;24.60;99.90
25991;DHT22;13779;-33.886;151.198;2024-03-08T12:20:44;24.60;99.90
25991;DHT22;13779;-33.886;151.198;2024-03-08T12:23:19;24.60;99.90
25991;DHT22;13779;-33.886;151.198;2024-03-08T12:25:49;24.60;99.90
25991;DHT22;13779;-33.886;151.198;2024-03-08T12:28:21;24.60;99.90
25991;DHT22;13779;-33.886;151.198;2024-03-08T12:30:52;24.50;99.90
25991;DHT22;13779;-33.886;151.198;2024-03-08T12:33:28;24.50;99.90
25991;DHT22;13779;-33.886;151.198;2024-03-08T12:36:00;24.50;99.90
25991;DHT22;13779;-33.886;151.198;2024-03-08T12:38:30;24.50;99.90
25991;DHT22;13779;-33.886;151.198;2024-03-08T12:41:01;24.50;99.90
25991;DHT22;13779;-33.886;151.198;2024-03-08T12:43:32;24.50;99.90
25991;DHT22;13779;-33.886;151.198;2024-03-08T12:46:03;24.50;99.90
25991;DHT22;13779;-33.886;151.198;2024-03-08T12:48:35;24.50;99.90
25991;DHT22;13779;-33.886;151.198;2024-03-08T12:51:09;24.50;99.90
25991;DHT22;13779;-33.886;151.198;2024-03-08T12:53:39;24.50;99.90
25991;DHT22;13779;-33.886;151.198;2024-03-08T12:56:10;24.50;99.90
25991;DHT22;13779;-33.886;151.198;2024-03-08T12:58:40;24.40;99.90
25991;DHT22;13779;-33.886;151.198;2024-03-08T13:01:10;24.40;99.90
25991;DHT22;13779;-33.886;151.198;2024-03-08T13:03:41;24.40;99.90
25991;DHT22;13779;-33.886;151.198;2024-03-08T13:06:14;24.50;99.90
25991;DHT22;13779;-33.886;151.198;2024-03-08T13:08:45;24.50;99.90
25991;DHT22;13779;-33.886;151.198;2024-03-08T13:11:20;24.50;99.90
25991;DHT22;13779;-33.886;151.198;2024-03-08T13:13:51;24.50;99.90
25991;DHT22;13779;-33.886;151.198;2024-03-08T13:16:24;24.50;99.90
25991;DHT22;13779;-33.886;151.198;2024-03-08T13:18:54;24.40;99.90
25991;DHT22;13779;-33.886;151.198;2024-03-08T13:21:26;24.40;99.90
25991;DHT22;13779;-33.886;151.198;2024-03-08T13:23:56;24.40;99.90
25991;DHT22;13779;-33.886;151.198;2024-03-08T13:26:27;24.40;99.90
25991;DHT22;13779;-33.886;151.198;2024-03-08T13:29:02;24.40;99.90
25991;DHT22;13779;-33.886;151.198;2024-03-08T13:31:31;24.40;99.90
25991;DHT22;13779;-33.886;151.198;2024-03-08T13:34:05;24.40;99.90
25991;DHT22;13779;-33.886;151.198;2024-03-08T13:36:34;24.40;99.90
25991;DHT22;13779;-33.886;151.198;2024-03-08T13:39:11;24.30;99.90
25991;DHT22;13779;-33.886;151.198;2024-03-08T13:41:49;24.30;99.90
25991;DHT22;13779;-33.886;151.198;2024-03-08T13:44:19;24.30;99.90
25991;DHT22;13779;-33.886;151.198;2024-03-08T13:46:49;24.30;99.90
25991;DHT22;13779;-33.886;151.198;2024-03-08T13:49:21;24.30;99.90
25991;DHT22;13779;-33.886;151.198;2024-03-08T13:51:51;24.30;99.90
25991;DHT22;13779;-33.886;151.198;2024-03-08T13:54:23;24.30;99.90
25991;DHT22;13779;-33.886;151.198;2024-03-08T13:56:53;24.30;99.90
25991;DHT22;13779;-33.886;151.198;2024-03-08T13:59:23;24.30;99.90
25991;DHT22;13779;-33.886;151.198;2024-03-08T14:01:54;24.30;99.90
25991;DHT22;13779;-33.886;151.198;2024-03-08T14:04:24;24.30;99.90
25991;DHT22;13779;-33.886;151.198;2024-03-08T14:06:56;24.30;99.90
25991;DHT22;13779;-33.886;151.198;2024-03-08T14:09:29;24.20;99.90
25991;DHT22;13779;-33.886;151.198;2024-03-08T14:12:00;24.20;99.90
25991;DHT22;13779;-33.886;151.198;2024-03-08T14:14:33;24.20;99.90
25991;DHT22;13779;-33.886;151.198;2024-03-08T14:17:06;24.20;99.90
25991;DHT22;13779;-33.886;151.198;2024-03-08T14:19:38;24.10;99.90
25991;DHT22;13779;-33.886;151.198;2024-03-08T14:22:08;24.10;99.90
25991;DHT22;13779;-33.886;151.198;2024-03-08T14:24:43;24.10;99.90
25991;DHT22;13779;-33.886;151.198;2024-03-08T14:27:14;24.10;99.90
25991;DHT22;13779;-33.886;151.198;2024-03-08T14:29:47;24.00;99.90
25991;DHT22;13779;-33.886;151.198;2024-03-08T14:32:18;24.00;99.90
25991;DHT22;13779;-33.886;151.198;2024-03-08T14:34:51;24.00;99.90
25991;DHT22;13779;-33.886;151.198;2024-03-08T14:37:24;24.00;99.90
25991;DHT22;13779;-33.886;151.198;2024-03-08T14:39:59;23.90;99.90
25991;DHT22;13779;-33.886;151.198;2024-03-08T14:42:29;23.90;99.90
25991;DHT22;13779;-33.886;151.198;2024-03-08T14:44:59;23.80;99.90
25991;DHT22;13779;-33.886;151.198;2024-03-08T14:47:29;23.80;99.90
25991;DHT22;13779;-33.886;151.198;2024-03-08T14:50:02;23.70;99.90
25991;DHT22;13779;-33.886;151.198;2024-03-08T14:52:32;23.70;99.90
25991;DHT22;13779;-33.886;151.198;2024-03-08T14:55:03;23.60;99.90
25991;DHT22;13779;-33.886;151.198;2024-03-08T14:57:35;23.60;99.90
25991;DHT22;13779;-33.886;151.198;2024-03-08T15:00:05;23.60;99.90
25991;DHT22;13779;-33.886;151.198;2024-03-08T15:02:37;23.60;99.90
25991;DHT22;13779;-33.886;151.198;2024-03-08T15:05:08;23.60;99.90
25991;DHT22;13779;-33.886;151.198;2024-03-08T15:07:41;23.60;99.90
25991;DHT22;13779;-33.886;151.198;2024-03-08T15:10:11;23.60;99.90
25991;DHT22;13779;-33.886;151.198;2024-03-08T15:12:45;23.50;99.90
25991;DHT22;13779;-33.886;151.198;2024-03-08T15:15:18;23.50;99.90
25991;DHT22;13779;-33.886;151.198;2024-03-08T15:17:49;23.50;99.90
25991;DHT22;13779;-33.886;151.198;2024-03-08T15:20:20;23.50;99.90
25991;DHT22;13779;-33.886;151.198;2024-03-08T15:22:58;23.50;99.90
25991;DHT22;13779;-33.886;151.198;2024-03-08T15:25:28;23.50;99.90
25991;DHT22;13779;-33.886;151.198;2024-03-08T15:28:00;23.50;99.90
25991;DHT22;13779;-33.886;151.198;2024-03-08T15:30:33;23.50;99.90